Terminal Aerodrome Forecast
Issued by NWS

Home | Current Version | Previous Version | Text Only | Print | Product List | Glossary On
Versions: 1 2 3 4 5 6 7 8 9 10 11 12 13 14 15 16 17 18 19 20 21 22 23 24 25
000
FTUS45 KTFX 172000 AAA
TAFHVR
TAF AMD
KHVR 172017Z 1720/1818 VRB06KT P6SM SCT008 OVC014
      TEMPO 1720/1723 BKN008
     FM180400 VRB03KT 5SM BR OVC005
     FM180900 23006KT P6SM BKN250=

USA.gov is the U.S. government's official web portal to all federal, state and local government web resources and services.